Time;durP1;ratioP1;P1;durP2;ratioP2;P2;SDS_P1;SDS_P2;PMS_P1;PMS_P2;Temp;Humidity;BMP_temperature;BMP_pressure;BME280_temperature;BME280_humidity;BME280_pressure;Samples;Min_cycle;Max_cycle;Signal;HPM_P1;HPM_P2
2021/12/30 05:00:55;;;;;;;0.97;0.60;;;14.10;99.90;;;;;;5730464;23;20567;-67
2021/12/30 05:03:22;;;;;;;1.13;0.70;;;14.00;99.90;;;;;;4976912;28;20440;-67
2021/12/30 05:05:51;;;;;;;2.00;0.70;;;14.00;99.90;;;;;;4976711;28;20452;-68
2021/12/30 05:08:19;;;;;;;1.70;1.27;;;14.00;99.90;;;;;;4976685;28;20459;-68
2021/12/30 05:10:47;;;;;;;1.70;0.80;;;14.00;99.90;;;;;;4976538;28;20476;-68
2021/12/30 05:13:15;;;;;;;0.60;0.60;;;14.10;99.90;;;;;;4976829;28;20552;-68
2021/12/30 05:15:42;;;;;;;0.93;0.70;;;14.00;99.90;;;;;;4976673;28;20455;-68
2021/12/30 05:18:13;;;;;;;2.07;0.80;;;13.90;99.90;;;;;;4976509;28;20478;-68
2021/12/30 05:20:40;;;;;;;0.80;0.80;;;13.90;99.90;;;;;;4976589;28;20572;-68
2021/12/30 05:23:08;;;;;;;0.80;0.80;;;14.00;99.90;;;;;;4976784;28;20463;-68
2021/12/30 05:25:36;;;;;;;0.70;0.70;;;13.90;99.90;;;;;;4976615;28;20456;-68
2021/12/30 05:28:03;;;;;;;0.60;0.60;;;13.90;99.90;;;;;;4976064;28;20569;-67
2021/12/30 05:30:30;;;;;;;1.50;0.67;;;13.90;99.90;;;;;;4976182;28;20480;-68
2021/12/30 05:32:58;;;;;;;0.80;0.80;;;13.90;99.90;;;;;;4976860;28;20459;-68
2021/12/30 05:35:26;;;;;;;1.23;0.57;;;13.90;99.90;;;;;;4976256;28;20457;-68
2021/12/30 05:37:53;;;;;;;0.50;0.50;;;13.90;99.90;;;;;;4975976;28;20456;-68
2021/12/30 05:40:21;;;;;;;1.00;0.50;;;14.00;99.90;;;;;;4976291;28;20464;-68
2021/12/30 05:42:49;;;;;;;0.70;0.70;;;13.90;99.90;;;;;;4976161;28;20463;-68
2021/12/30 05:45:17;;;;;;;0.57;0.40;;;13.90;99.90;;;;;;4975715;28;20455;-68
2021/12/30 05:47:46;;;;;;;0.50;0.50;;;13.90;99.90;;;;;;4976006;28;20999;-68
2021/12/30 05:50:15;;;;;;;0.50;0.50;;;13.90;99.90;;;;;;4976091;28;20479;-68
2021/12/30 05:52:44;;;;;;;0.70;0.70;;;13.90;99.90;;;;;;4976934;28;20850;-68
2021/12/30 05:55:11;;;;;;;0.40;0.40;;;13.90;99.90;;;;;;4975842;28;20850;-68
2021/12/30 05:57:39;;;;;;;0.60;0.60;;;13.90;99.90;;;;;;4976803;28;21001;-69
2021/12/30 06:00:08;;;;;;;1.80;0.57;;;14.00;99.90;;;;;;4981202;28;20464;-69
2021/12/30 06:02:35;;;;;;;0.80;0.60;;;14.00;99.90;;;;;;4981086;28;20471;-69
2021/12/30 06:05:02;;;;;;;2.20;0.60;;;14.00;99.90;;;;;;4980688;28;20472;-67
2021/12/30 06:07:29;;;;;;;1.00;0.60;;;14.00;99.90;;;;;;4980244;28;20484;-69
2021/12/30 06:09:57;;;;;;;0.67;0.67;;;14.00;99.90;;;;;;4978551;28;20455;-69
2021/12/30 06:12:24;;;;;;;1.57;0.90;;;14.00;99.90;;;;;;4976989;28;20812;-68
2021/12/30 06:14:51;;;;;;;3.90;0.70;;;14.00;99.90;;;;;;4976390;28;20957;-68
2021/12/30 06:17:18;;;;;;;0.60;0.60;;;14.00;99.90;;;;;;4975953;28;20818;-68
2021/12/30 06:19:44;;;;;;;0.63;0.63;;;13.90;99.90;;;;;;4975900;28;20469;-69
2021/12/30 06:22:11;;;;;;;0.60;0.60;;;13.80;99.90;;;;;;4975754;28;20505;-69
2021/12/30 06:24:38;;;;;;;1.33;0.80;;;13.70;99.90;;;;;;4975944;28;20462;-68
2021/12/30 06:27:07;;;;;;;1.17;0.60;;;13.70;99.90;;;;;;4975481;28;20998;-68
2021/12/30 06:29:34;;;;;;;0.70;0.70;;;13.70;99.90;;;;;;4976415;28;20441;-68
2021/12/30 06:32:01;;;;;;;1.13;0.60;;;13.70;99.90;;;;;;4975858;28;20486;-68
2021/12/30 06:34:27;;;;;;;0.70;0.70;;;13.70;99.90;;;;;;4975605;28;20460;-68
2021/12/30 06:36:54;;;;;;;0.60;0.60;;;13.70;99.90;;;;;;4975896;28;20457;-69
2021/12/30 06:39:21;;;;;;;0.60;0.60;;;13.60;99.90;;;;;;4975972;28;20839;-68
2021/12/30 06:41:48;;;;;;;0.40;0.40;;;13.50;99.90;;;;;;4975762;28;20481;-69
2021/12/30 06:44:16;;;;;;;3.40;0.60;;;13.50;99.90;;;;;;4975350;28;20458;-68
2021/12/30 06:46:51;;;;;;;0.70;0.50;;;13.60;99.90;;;;;;4977886;28;20458;-69
2021/12/30 06:49:18;;;;;;;0.57;0.57;;;13.50;99.90;;;;;;4980559;28;20503;-69
2021/12/30 06:51:45;;;;;;;1.27;0.40;;;13.50;99.90;;;;;;4975209;28;20822;-69
2021/12/30 06:54:11;;;;;;;1.63;1.47;;;13.50;99.90;;;;;;4974962;28;20458;-68
2021/12/30 06:56:39;;;;;;;0.63;0.50;;;13.40;99.90;;;;;;4975569;28;20467;-69
2021/12/30 06:59:06;;;;;;;3.03;0.53;;;13.40;99.90;;;;;;4978880;28;20976;-68
2021/12/30 07:01:34;;;;;;;3.33;1.20;;;13.40;99.90;;;;;;4978966;28;20487;-68
2021/12/30 07:04:01;;;;;;;4.13;0.60;;;13.50;99.90;;;;;;4979439;28;20455;-69
2021/12/30 07:06:28;;;;;;;0.40;0.40;;;13.40;99.90;;;;;;4978474;28;20826;-69
2021/12/30 07:08:54;;;;;;;1.83;0.73;;;13.50;99.90;;;;;;4978077;28;20489;-69
2021/12/30 07:11:21;;;;;;;3.23;0.80;;;13.50;99.90;;;;;;4978700;28;20480;-69
2021/12/30 07:13:48;;;;;;;1.03;0.57;;;13.50;99.90;;;;;;4978850;28;20454;-69
2021/12/30 07:16:14;;;;;;;0.60;0.60;;;13.50;99.90;;;;;;4978747;28;20808;-68
2021/12/30 07:18:43;;;;;;;0.40;0.40;;;13.60;99.90;;;;;;4978767;28;20456;-69
2021/12/30 07:21:09;;;;;;;2.20;0.40;;;13.60;99.90;;;;;;4978452;28;20970;-68
2021/12/30 07:23:36;;;;;;;0.50;0.50;;;13.60;99.90;;;;;;4978644;28;20455;-68
2021/12/30 07:26:03;;;;;;;0.60;0.60;;;13.60;99.90;;;;;;4978819;28;20467;-68
2021/12/30 07:28:30;;;;;;;0.63;0.63;;;13.60;99.90;;;;;;4978575;28;20480;-68
2021/12/30 07:30:56;;;;;;;0.50;0.50;;;13.60;99.90;;;;;;4978481;28;20486;-68
2021/12/30 07:33:23;;;;;;;1.53;0.60;;;13.50;99.90;;;;;;4978483;28;20466;-69
2021/12/30 07:35:51;;;;;;;1.13;0.60;;;13.60;99.90;;;;;;4978349;28;20463;-68
2021/12/30 07:38:18;;;;;;;2.27;0.70;;;13.60;99.90;;;;;;4978334;28;20458;-68
2021/12/30 07:40:45;;;;;;;0.90;0.60;;;13.60;99.90;;;;;;4978166;28;20484;-69
2021/12/30 07:43:12;;;;;;;2.40;0.60;;;13.70;99.90;;;;;;4978121;28;20465;-69
2021/12/30 07:45:39;;;;;;;0.87;0.63;;;13.70;99.90;;;;;;4977958;28;20455;-69
2021/12/30 07:48:06;;;;;;;0.60;0.60;;;13.70;99.90;;;;;;4977974;28;20479;-68
2021/12/30 07:50:33;;;;;;;0.63;0.63;;;13.60;99.90;;;;;;4978132;28;20480;-69
2021/12/30 07:53:01;;;;;;;0.40;0.40;;;13.60;99.90;;;;;;4978077;28;20452;-69
2021/12/30 07:55:28;;;;;;;0.60;0.43;;;13.60;99.90;;;;;;4978351;28;20441;-68
2021/12/30 07:57:57;;;;;;;0.47;0.47;;;13.50;99.90;;;;;;4978151;28;20450;-68
2021/12/30 08:00:26;;;;;;;0.40;0.40;;;13.60;99.90;;;;;;4978274;28;20461;-69
2021/12/30 08:02:52;;;;;;;0.50;0.50;;;13.50;99.90;;;;;;4980813;28;20468;-68
2021/12/30 08:05:21;;;;;;;1.33;0.63;;;13.60;99.90;;;;;;4977963;28;20464;-68
2021/12/30 08:07:49;;;;;;;0.63;0.63;;;13.60;99.90;;;;;;4978001;28;20469;-67
2021/12/30 08:10:18;;;;;;;0.60;0.60;;;13.50;99.90;;;;;;4978298;28;20494;-67
2021/12/30 08:12:47;;;;;;;0.60;0.60;;;13.60;99.90;;;;;;4978402;28;20946;-67
2021/12/30 08:15:16;;;;;;;0.60;0.60;;;13.60;99.90;;;;;;4977923;28;20803;-67
2021/12/30 08:17:43;;;;;;;0.67;0.50;;;13.60;99.90;;;;;;4977857;28;20453;-67
2021/12/30 08:20:12;;;;;;;0.60;0.60;;;13.60;99.90;;;;;;4977639;28;20466;-67
2021/12/30 08:22:39;;;;;;;0.50;0.50;;;13.60;99.90;;;;;;4977549;28;20464;-68
2021/12/30 08:25:07;;;;;;;0.63;0.50;;;13.60;99.90;;;;;;4977550;28;20862;-68
2021/12/30 08:27:35;;;;;;;4.73;0.70;;;13.70;99.90;;;;;;4977573;28;20479;-68
2021/12/30 08:30:03;;;;;;;0.60;0.60;;;13.70;99.90;;;;;;4977568;28;20821;-68
2021/12/30 08:32:29;;;;;;;1.90;0.50;;;13.80;99.90;;;;;;4977310;28;20470;-68
2021/12/30 08:34:56;;;;;;;0.60;0.60;;;13.80;99.90;;;;;;4977257;28;20464;-68
2021/12/30 08:37:23;;;;;;;1.17;0.70;;;13.80;99.90;;;;;;4980707;28;20453;-65
2021/12/30 08:39:50;;;;;;;0.60;0.60;;;13.90;99.90;;;;;;4980470;28;20455;-67
2021/12/30 08:42:19;;;;;;;1.83;0.70;;;14.00;99.90;;;;;;4977214;28;20478;-67
2021/12/30 08:44:48;;;;;;;1.53;0.50;;;14.00;99.90;;;;;;4977142;28;20465;-67
2021/12/30 08:47:15;;;;;;;0.50;0.50;;;14.00;99.90;;;;;;4976654;28;20969;-68
2021/12/30 08:49:45;;;;;;;0.73;0.50;;;14.10;99.90;;;;;;4977398;28;20468;-67
2021/12/30 08:52:12;;;;;;;0.47;0.47;;;14.20;99.90;;;;;;4976802;28;20476;-67
2021/12/30 08:54:39;;;;;;;2.10;0.70;;;14.30;99.90;;;;;;4976601;28;20461;-66
2021/12/30 08:57:06;;;;;;;0.50;0.50;;;14.40;99.90;;;;;;4976542;28;20929;-66
2021/12/30 08:59:32;;;;;;;0.53;0.50;;;14.50;99.90;;;;;;4976423;28;20454;-67
2021/12/30 09:02:01;;;;;;;0.60;0.60;;;14.80;99.90;;;;;;4976418;28;20483;-66
2021/12/30 09:04:27;;;;;;;0.53;0.53;;;15.00;99.90;;;;;;4976560;28;20460;-66
2021/12/30 09:06:54;;;;;;;0.60;0.50;;;15.10;99.90;;;;;;4977173;28;20462;-67
2021/12/30 09:09:21;;;;;;;2.50;0.70;;;15.50;99.90;;;;;;4976855;28;20480;-66
2021/12/30 09:11:48;;;;;;;1.03;0.57;;;15.80;99.90;;;;;;4976925;28;20473;-67
2021/12/30 09:14:15;;;;;;;1.13;0.97;;;16.10;99.90;;;;;;4976818;28;20472;-67
2021/12/30 09:16:42;;;;;;;0.60;0.60;;;16.20;99.90;;;;;;4976366;28;20501;-67
2021/12/30 09:19:10;;;;;;;0.50;0.50;;;16.10;99.90;;;;;;4976607;28;20460;-66
2021/12/30 09:21:38;;;;;;;3.80;0.70;;;16.10;99.90;;;;;;4976242;28;20475;-70
2021/12/30 09:24:06;;;;;;;0.60;0.60;;;16.10;99.90;;;;;;4976406;28;20936;-67
2021/12/30 09:26:33;;;;;;;0.90;0.90;;;16.10;99.90;;;;;;4976774;28;20463;-67
2021/12/30 09:29:00;;;;;;;0.80;0.80;;;16.20;99.90;;;;;;4976631;28;20476;-67
2021/12/30 09:31:28;;;;;;;0.90;0.90;;;16.30;99.90;;;;;;4977817;28;20827;-67
2021/12/30 09:33:57;;;;;;;1.23;0.73;;;16.30;99.90;;;;;;4982618;28;20939;-66
2021/12/30 09:36:26;;;;;;;0.73;0.73;;;16.30;99.90;;;;;;4976619;28;20464;-66
2021/12/30 09:38:53;;;;;;;0.70;0.70;;;16.40;99.90;;;;;;4976997;28;20448;-67
2021/12/30 09:41:20;;;;;;;0.80;0.80;;;16.40;99.90;;;;;;4975929;28;20482;-66
2021/12/30 09:43:47;;;;;;;1.10;0.80;;;16.30;99.90;;;;;;4976302;28;20463;-67
2021/12/30 09:46:14;;;;;;;0.80;0.80;;;16.40;99.90;;;;;;4976245;28;20457;-66
2021/12/30 09:48:41;;;;;;;0.70;0.70;;;16.30;99.90;;;;;;4975836;28;20479;-66
2021/12/30 09:51:08;;;;;;;0.80;0.80;;;16.30;99.90;;;;;;4976345;28;21020;-66
2021/12/30 09:53:36;;;;;;;0.57;0.57;;;16.40;99.90;;;;;;4975610;28;20492;-68
2021/12/30 09:56:03;;;;;;;1.67;0.80;;;16.40;99.90;;;;;;4976086;28;20937;-67
2021/12/30 09:58:30;;;;;;;0.97;0.97;;;16.50;99.90;;;;;;4976109;28;20458;-68
2021/12/30 10:00:59;;;;;;;1.40;1.10;;;16.60;99.90;;;;;;4975937;28;20577;-67
2021/12/30 10:03:27;;;;;;;1.30;0.80;;;16.60;99.90;;;;;;4975809;28;20462;-66
2021/12/30 10:05:54;;;;;;;0.90;0.90;;;16.70;99.90;;;;;;4976012;28;20819;-67
2021/12/30 10:08:24;;;;;;;0.70;0.70;;;16.80;99.90;;;;;;4975557;28;21008;-66
2021/12/30 10:10:54;;;;;;;0.93;0.90;;;16.80;99.90;;;;;;4976006;28;20477;-67
2021/12/30 10:13:24;;;;;;;0.80;0.80;;;16.90;99.90;;;;;;4975838;28;20541;-67
2021/12/30 10:15:54;;;;;;;1.13;0.70;;;16.90;99.90;;;;;;4975656;28;20466;-66
2021/12/30 10:18:23;;;;;;;0.70;0.70;;;16.80;99.90;;;;;;4976406;28;20454;-66
2021/12/30 10:20:50;;;;;;;0.90;0.90;;;16.90;99.90;;;;;;4975747;28;20485;-66
2021/12/30 10:23:19;;;;;;;0.80;0.80;;;16.90;99.90;;;;;;4976232;28;20818;-66
2021/12/30 10:25:48;;;;;;;1.00;0.67;;;16.80;99.90;;;;;;4976036;28;20465;-66
2021/12/30 10:28:31;;;;;;;0.90;0.90;;;16.70;99.90;;;;;;4975704;28;20522;-67
2021/12/30 10:31:01;;;;;;;0.77;0.77;;;16.70;99.90;;;;;;4976286;28;20482;-68
2021/12/30 10:33:30;;;;;;;1.10;1.00;;;16.70;99.90;;;;;;4979781;28;20933;-68
2021/12/30 10:35:58;;;;;;;1.33;1.23;;;16.70;99.90;;;;;;4980549;28;20455;-67
2021/12/30 10:38:29;;;;;;;0.60;0.60;;;16.70;99.90;;;;;;4979375;28;20465;-69
2021/12/30 10:41:01;;;;;;;1.77;0.90;;;16.70;99.90;;;;;;4979321;28;20480;-68
2021/12/30 10:43:33;;;;;;;0.90;0.90;;;16.80;99.90;;;;;;4979353;28;20442;-67
2021/12/30 10:46:05;;;;;;;1.23;1.20;;;16.90;99.90;;;;;;4979808;28;20454;-67
2021/12/30 10:48:32;;;;;;;0.90;0.90;;;17.00;99.90;;;;;;4979467;28;20477;-67
2021/12/30 10:51:17;;;;;;;0.60;0.60;;;17.10;99.90;;;;;;4979422;28;21010;-68
2021/12/30 10:53:44;;;;;;;0.93;0.80;;;17.10;99.90;;;;;;4978389;28;20466;-69
2021/12/30 10:56:31;;;;;;;1.47;0.70;;;17.10;99.90;;;;;;4979165;28;20442;-67
2021/12/30 10:59:30;;;;;;;0.63;0.63;;;17.20;99.90;;;;;;4978943;28;20447;-72
2021/12/30 11:02:00;;;;;;;0.60;0.60;;;17.20;99.90;;;;;;4919570;29;20493;-71
2021/12/30 11:04:35;;;;;;;0.60;0.60;;;17.20;99.90;;;;;;4972754;28;20493;-70
2021/12/30 11:07:02;;;;;;;0.97;0.80;;;17.30;99.90;;;;;;4980341;28;20458;-69
2021/12/30 11:09:29;;;;;;;0.63;0.63;;;17.30;99.90;;;;;;4979037;28;20483;-69
2021/12/30 11:11:58;;;;;;;0.70;0.70;;;17.40;99.90;;;;;;4979074;28;20479;-67
2021/12/30 11:14:27;;;;;;;1.27;1.20;;;17.40;99.90;;;;;;4978799;28;20489;-68
2021/12/30 11:17:03;;;;;;;2.10;2.00;;;17.50;99.90;;;;;;4978937;28;20459;-68
2021/12/30 11:19:32;;;;;;;2.43;2.23;;;17.40;99.90;;;;;;4978828;28;20435;-68
2021/12/30 11:22:00;;;;;;;1.10;1.10;;;17.40;99.90;;;;;;4978860;28;20518;-67
2021/12/30 11:24:29;;;;;;;2.43;1.17;;;17.50;99.90;;;;;;4979187;28;20458;-70
2021/12/30 11:26:56;;;;;;;0.70;0.70;;;17.60;99.90;;;;;;4978825;28;20455;-71
2021/12/30 11:29:23;;;;;;;0.70;0.70;;;17.60;99.90;;;;;;4978083;28;20478;-71
2021/12/30 11:31:51;;;;;;;0.80;0.80;;;17.60;99.90;;;;;;4977995;28;20838;-71
2021/12/30 11:34:22;;;;;;;0.70;0.70;;;17.50;99.90;;;;;;4979310;28;20466;-73
2021/12/30 11:36:48;;;;;;;0.40;0.40;;;17.50;99.90;;;;;;4980642;28;20443;-69
2021/12/30 11:39:18;;;;;;;0.30;0.30;;;17.40;99.90;;;;;;4990652;28;20450;-69
2021/12/30 11:41:47;;;;;;;0.40;0.40;;;17.30;99.90;;;;;;4990698;28;20467;-72
2021/12/30 11:44:37;;;;;;;0.30;0.30;;;17.40;99.90;;;;;;4989379;28;20465;-69
2021/12/30 11:47:05;;;;;;;0.83;0.50;;;17.50;99.90;;;;;;4980793;28;20989;-73
2021/12/30 11:49:54;;;;;;;0.40;0.40;;;17.50;99.90;;;;;;4979426;28;20482;-72
2021/12/30 11:52:51;;;;;;;3.03;0.50;;;17.60;99.90;;;;;;4981672;28;20475;-71
2021/12/30 11:55:44;;;;;;;0.50;0.50;;;17.70;99.90;;;;;;4984434;28;20451;-70
2021/12/30 11:58:36;;;;;;;1.40;0.50;;;17.80;99.90;;;;;;4979701;28;20466;-70
2021/12/30 12:01:24;;;;;;;0.43;0.43;;;17.90;99.90;;;;;;4977569;28;20491;-70
2021/12/30 12:03:58;;;;;;;0.60;0.60;;;18.00;99.90;;;;;;4977506;28;20460;-71
2021/12/30 12:06:35;;;;;;;1.23;0.40;;;17.90;99.90;;;;;;4977819;28;20435;-69
2021/12/30 12:09:07;;;;;;;0.47;0.47;;;17.90;99.90;;;;;;4977993;28;20467;-69
2021/12/30 12:11:45;;;;;;;0.40;0.40;;;17.80;99.90;;;;;;4977421;28;20981;-70
2021/12/30 12:14:15;;;;;;;0.50;0.40;;;17.70;99.90;;;;;;4977464;28;20444;-70
2021/12/30 12:17:04;;;;;;;0.53;0.53;;;17.70;99.90;;;;;;4978133;28;20439;-70
2021/12/30 12:19:37;;;;;;;0.40;0.40;;;17.70;99.90;;;;;;4974269;28;20531;-70
2021/12/30 12:22:08;;;;;;;0.37;0.37;;;17.60;99.90;;;;;;4978348;28;20834;-68
2021/12/30 12:24:38;;;;;;;0.37;0.37;;;17.60;99.90;;;;;;4978079;28;20446;-68
2021/12/30 12:27:08;;;;;;;0.40;0.40;;;17.60;99.90;;;;;;4978299;28;20438;-68
2021/12/30 12:29:38;;;;;;;0.47;0.47;;;17.60;99.90;;;;;;4979004;28;20485;-69
2021/12/30 12:32:10;;;;;;;0.80;0.40;;;17.60;99.90;;;;;;4979551;28;20521;-68
2021/12/30 12:34:41;;;;;;;0.40;0.40;;;17.60;99.90;;;;;;4981115;28;20443;-68
2021/12/30 12:37:41;;;;;;;0.47;0.47;;;17.50;99.90;;;;;;4981997;28;20439;-68
2021/12/30 12:40:11;;;;;;;0.37;0.37;;;17.40;99.90;;;;;;4977303;28;20982;-69
2021/12/30 12:43:00;;;;;;;0.30;0.30;;;17.30;99.90;;;;;;4977121;28;20478;-67
2021/12/30 12:45:29;;;;;;;0.50;0.50;;;17.30;99.90;;;;;;4973725;28;20463;-68
2021/12/30 12:48:25;;;;;;;0.40;0.40;;;17.20;99.90;;;;;;4977698;28;20906;-69
2021/12/30 12:50:55;;;;;;;0.60;0.47;;;17.20;99.90;;;;;;4976777;28;20473;-68
2021/12/30 12:53:48;;;;;;;1.63;0.57;;;17.20;99.90;;;;;;4977061;28;20804;-69
2021/12/30 12:56:21;;;;;;;0.50;0.50;;;17.20;99.90;;;;;;4976428;28;20445;-69
2021/12/30 12:58:50;;;;;;;0.37;0.37;;;17.30;99.90;;;;;;4976465;28;20915;-69
2021/12/30 13:01:19;;;;;;;0.60;0.50;;;17.40;99.90;;;;;;4976730;28;20478;-68
2021/12/30 13:03:45;;;;;;;0.43;0.43;;;17.40;99.90;;;;;;4977320;28;20467;-68
2021/12/30 13:06:14;;;;;;;0.53;0.53;;;17.40;99.90;;;;;;4976891;28;20472;-68
2021/12/30 13:08:44;;;;;;;1.03;0.40;;;17.40;99.90;;;;;;4976751;28;20505;-68
2021/12/30 13:11:24;;;;;;;0.30;0.30;;;17.40;99.90;;;;;;4976598;28;20482;-71
2021/12/30 13:13:52;;;;;;;0.30;0.30;;;17.40;99.90;;;;;;4977487;28;20447;-72
2021/12/30 13:16:24;;;;;;;0.40;0.40;;;17.30;99.90;;;;;;4977062;28;20446;-72
2021/12/30 13:19:10;;;;;;;0.43;0.37;;;17.10;99.90;;;;;;4976867;28;20441;-73
2021/12/30 13:21:46;;;;;;;0.50;0.40;;;17.00;99.90;;;;;;4976934;28;20485;-72
2021/12/30 13:24:41;;;;;;;0.30;0.30;;;16.90;99.90;;;;;;4977115;28;20505;-72
2021/12/30 13:27:21;;;;;;;0.60;0.30;;;16.90;99.90;;;;;;4942610;28;20827;-73
2021/12/30 13:29:51;;;;;;;0.50;0.50;;;16.70;99.90;;;;;;4976297;28;20466;-72
2021/12/30 13:32:23;;;;;;;0.40;0.40;;;16.70;99.90;;;;;;4975708;28;21013;-72
2021/12/30 13:34:57;;;;;;;0.50;0.47;;;16.70;99.90;;;;;;4975884;28;20441;-72
2021/12/30 13:37:28;;;;;;;0.63;0.40;;;16.70;99.90;;;;;;4976224;28;20872;-71
2021/12/30 13:39:55;;;;;;;0.33;0.33;;;16.70;99.90;;;;;;4976707;28;20439;-72
2021/12/30 13:42:24;;;;;;;0.60;0.60;;;16.60;99.90;;;;;;4976176;28;20486;-72
2021/12/30 13:44:55;;;;;;;0.70;0.40;;;16.60;99.90;;;;;;4976342;28;20457;-71
2021/12/30 13:47:26;;;;;;;0.50;0.50;;;16.60;99.90;;;;;;4976477;28;20822;-73
2021/12/30 13:49:56;;;;;;;1.13;0.60;;;16.60;99.90;;;;;;4976383;28;21017;-72
2021/12/30 13:52:25;;;;;;;1.13;0.40;;;16.60;99.90;;;;;;4976575;28;20535;-72
2021/12/30 13:55:13;;;;;;;0.60;0.40;;;16.60;99.90;;;;;;4976183;28;20541;-72
2021/12/30 13:57:42;;;;;;;0.53;0.53;;;16.60;99.90;;;;;;4976076;28;20446;-72
2021/12/30 14:00:13;;;;;;;0.60;0.60;;;16.70;99.90;;;;;;4976310;28;20455;-72
2021/12/30 14:02:40;;;;;;;0.60;0.60;;;16.60;99.90;;;;;;4976948;28;20482;-71
2021/12/30 14:05:13;;;;;;;0.40;0.40;;;16.70;99.90;;;;;;4976651;28;20450;-68
2021/12/30 14:07:43;;;;;;;0.50;0.50;;;16.70;99.90;;;;;;4977808;28;20843;-69
2021/12/30 14:10:11;;;;;;;0.47;0.47;;;16.70;99.90;;;;;;4976275;28;20509;-71
2021/12/30 14:12:38;;;;;;;0.77;0.40;;;16.70;99.90;;;;;;4976119;28;20477;-72
2021/12/30 14:15:19;;;;;;;0.50;0.50;;;16.70;99.90;;;;;;4975905;28;20439;-71
2021/12/30 14:17:46;;;;;;;0.40;0.40;;;16.70;99.90;;;;;;4976038;28;20805;-71
2021/12/30 14:20:14;;;;;;;0.47;0.47;;;16.80;99.90;;;;;;4975734;28;20851;-71
2021/12/30 14:22:45;;;;;;;0.63;0.60;;;16.80;99.90;;;;;;4976697;28;20463;-71
2021/12/30 14:25:29;;;;;;;1.20;0.77;;;16.80;99.90;;;;;;4975719;28;20808;-72
2021/12/30 14:27:56;;;;;;;0.57;0.57;;;16.80;99.90;;;;;;4975969;28;20457;-72
2021/12/30 14:30:24;;;;;;;0.70;0.70;;;16.80;99.90;;;;;;4975585;28;20481;-71
2021/12/30 14:32:51;;;;;;;1.00;0.70;;;16.80;99.90;;;;;;4975155;28;20918;-72
2021/12/30 14:35:18;;;;;;;0.70;0.70;;;16.80;99.90;;;;;;4976650;28;20973;-72
2021/12/30 14:37:46;;;;;;;0.80;0.80;;;16.70;99.90;;;;;;4978788;28;20462;-72
2021/12/30 14:40:17;;;;;;;2.10;1.10;;;16.70;99.90;;;;;;4976726;28;20458;-72
2021/12/30 14:42:44;;;;;;;0.70;0.70;;;16.50;99.90;;;;;;4975982;28;20451;-73
2021/12/30 14:45:14;;;;;;;1.80;1.10;;;16.40;99.90;;;;;;4975804;28;20456;-73
2021/12/30 14:47:46;;;;;;;0.97;0.90;;;16.50;99.90;;;;;;4975687;28;20462;-73
2021/12/30 14:50:15;;;;;;;0.77;0.73;;;16.40;99.90;;;;;;4976176;28;20477;-74
2021/12/30 14:52:44;;;;;;;1.23;0.70;;;16.40;99.90;;;;;;4977136;28;20466;-73
2021/12/30 14:55:14;;;;;;;0.70;0.70;;;16.40;99.90;;;;;;4975898;28;20480;-74
2021/12/30 14:57:41;;;;;;;1.43;0.90;;;16.40;99.90;;;;;;4975586;28;20457;-74
2021/12/30 15:00:11;;;;;;;1.10;1.00;;;16.40;99.90;;;;;;4975643;28;20458;-74
2021/12/30 15:02:38;;;;;;;6.90;0.87;;;16.40;99.90;;;;;;4975572;28;20850;-73
2021/12/30 15:05:07;;;;;;;1.23;0.87;;;16.30;99.90;;;;;;4977849;28;20466;-73
2021/12/30 15:07:34;;;;;;;1.20;0.90;;;16.30;99.90;;;;;;4980298;28;20458;-73
2021/12/30 15:10:03;;;;;;;0.70;0.60;;;16.30;99.90;;;;;;4980558;28;20993;-73
2021/12/30 15:12:32;;;;;;;1.40;0.67;;;16.30;99.90;;;;;;4980738;28;20541;-74
2021/12/30 15:15:01;;;;;;;2.83;0.90;;;16.20;99.90;;;;;;4979294;28;20976;-72
2021/12/30 15:17:29;;;;;;;1.53;0.73;;;16.20;99.90;;;;;;4976065;28;20458;-73
2021/12/30 15:19:56;;;;;;;0.70;0.57;;;16.10;99.90;;;;;;4979282;28;21050;-72
2021/12/30 15:22:24;;;;;;;0.93;0.80;;;16.10;99.90;;;;;;4979440;28;20477;-73
2021/12/30 15:24:51;;;;;;;0.70;0.70;;;16.10;99.90;;;;;;4979363;28;20458;-73
2021/12/30 15:27:18;;;;;;;0.70;0.50;;;16.00;99.90;;;;;;4979001;28;20960;-74
2021/12/30 15:29:46;;;;;;;2.40;0.73;;;16.00;99.90;;;;;;4978920;28;20488;-74
2021/12/30 15:32:14;;;;;;;1.50;0.90;;;16.00;99.90;;;;;;4978741;28;20478;-73
2021/12/30 15:34:41;;;;;;;1.50;1.00;;;16.00;99.90;;;;;;4978431;28;20930;-73
2021/12/30 15:37:08;;;;;;;0.70;0.70;;;15.90;99.90;;;;;;4981032;28;20476;-70
2021/12/30 15:39:36;;;;;;;1.13;0.90;;;15.80;99.90;;;;;;4981213;28;20873;-70
2021/12/30 15:42:04;;;;;;;1.50;1.40;;;15.80;99.90;;;;;;4979004;28;20480;-70
2021/12/30 15:44:30;;;;;;;0.97;0.97;;;15.80;99.90;;;;;;4979051;28;20465;-70
2021/12/30 15:46:57;;;;;;;0.60;0.60;;;15.60;99.90;;;;;;4979048;28;20822;-70
2021/12/30 15:49:24;;;;;;;0.77;0.77;;;15.30;99.90;;;;;;4978547;28;20461;-70
2021/12/30 15:51:51;;;;;;;2.33;1.80;;;15.20;99.90;;;;;;4978683;28;20485;-70
2021/12/30 15:54:21;;;;;;;1.00;1.00;;;15.00;99.90;;;;;;4978412;28;20946;-69
2021/12/30 15:56:50;;;;;;;0.80;0.80;;;14.90;99.90;;;;;;4978699;28;20453;-69
2021/12/30 15:59:18;;;;;;;0.70;0.70;;;14.80;99.90;;;;;;4978605;28;20460;-70
2021/12/30 16:01:45;;;;;;;1.60;0.90;;;14.80;99.90;;;;;;4978280;28;20843;-72
2021/12/30 16:04:12;;;;;;;0.90;0.90;;;14.80;99.90;;;;;;4977830;28;20465;-70
2021/12/30 16:06:41;;;;;;;0.60;0.60;;;14.60;99.90;;;;;;4979091;28;20454;-70
2021/12/30 16:09:11;;;;;;;1.00;0.60;;;14.50;99.90;;;;;;4977923;28;20462;-70
2021/12/30 16:11:42;;;;;;;1.07;0.93;;;14.40;99.90;;;;;;4977885;28;20486;-70
2021/12/30 16:14:11;;;;;;;0.60;0.60;;;14.40;99.90;;;;;;4979283;28;20781;-70
2021/12/30 16:16:38;;;;;;;0.60;0.40;;;14.40;99.90;;;;;;4978624;28;20457;-69
2021/12/30 16:19:06;;;;;;;0.47;0.47;;;14.40;99.90;;;;;;4978963;28;20458;-70
2021/12/30 16:21:33;;;;;;;0.50;0.50;;;14.40;99.90;;;;;;4978169;28;20479;-69
2021/12/30 16:24:00;;;;;;;0.60;0.50;;;14.50;99.90;;;;;;4979253;28;20444;-69
2021/12/30 16:26:26;;;;;;;0.50;0.50;;;14.50;99.90;;;;;;4978368;28;20457;-69
2021/12/30 16:28:53;;;;;;;0.70;0.70;;;14.60;99.90;;;;;;4977955;28;20461;-70
2021/12/30 16:31:22;;;;;;;1.00;0.50;;;14.60;99.90;;;;;;4979571;28;20488;-70
2021/12/30 16:33:49;;;;;;;0.40;0.40;;;14.70;99.90;;;;;;4978248;28;20442;-71
2021/12/30 16:36:16;;;;;;;0.50;0.50;;;14.80;99.90;;;;;;4978517;28;20450;-69
2021/12/30 16:38:43;;;;;;;0.60;0.60;;;14.80;99.90;;;;;;4977761;28;20548;-69
2021/12/30 16:41:10;;;;;;;2.00;0.50;;;14.80;99.90;;;;;;4977460;28;20478;-70
2021/12/30 16:43:39;;;;;;;1.07;1.07;;;14.80;99.90;;;;;;4977555;28;20457;-70
2021/12/30 16:46:06;;;;;;;0.50;0.50;;;14.80;99.90;;;;;;4977599;28;20547;-68
2021/12/30 16:48:35;;;;;;;0.80;0.60;;;14.80;99.90;;;;;;4977177;28;20465;-70
2021/12/30 16:51:02;;;;;;;1.13;0.60;;;14.80;99.90;;;;;;4976922;28;20488;-69
2021/12/30 16:53:29;;;;;;;0.70;0.70;;;14.80;99.90;;;;;;4977607;28;20461;-71
2021/12/30 16:55:57;;;;;;;1.77;0.60;;;14.80;99.90;;;;;;4977130;28;20495;-69
2021/12/30 16:58:24;;;;;;;1.00;0.77;;;14.80;99.90;;;;;;4977298;28;20818;-68
2021/12/30 17:00:51;;;;;;;1.53;0.80;;;14.80;99.90;;;;;;4976253;28;20487;-71
2021/12/30 17:03:18;;;;;;;1.70;1.47;;;14.80;99.90;;;;;;4977517;28;20468;-69
2021/12/30 17:05:46;;;;;;;0.63;0.63;;;14.80;99.90;;;;;;4977542;28;20846;-70
2021/12/30 17:08:14;;;;;;;1.73;0.80;;;14.80;99.90;;;;;;4981391;28;20461;-71
2021/12/30 17:10:42;;;;;;;0.90;0.90;;;14.80;99.90;;;;;;4983609;28;20499;-70
2021/12/30 17:13:09;;;;;;;0.80;0.80;;;14.80;99.90;;;;;;4984758;28;20462;-71
2021/12/30 17:15:36;;;;;;;0.60;0.60;;;14.80;99.90;;;;;;4982524;28;20480;-71
2021/12/30 17:18:05;;;;;;;1.87;1.20;;;14.90;99.90;;;;;;4976667;28;20465;-70
2021/12/30 17:20:32;;;;;;;0.93;0.93;;;14.90;99.90;;;;;;4976361;28;20466;-70
2021/12/30 17:23:00;;;;;;;1.97;1.30;;;14.90;99.90;;;;;;4976991;28;20473;-69
2021/12/30 17:25:27;;;;;;;0.70;0.70;;;14.90;99.90;;;;;;4976553;28;20445;-68
2021/12/30 17:27:56;;;;;;;1.03;0.60;;;14.90;99.90;;;;;;4976338;28;20464;-67
2021/12/30 17:30:23;;;;;;;1.13;0.90;;;14.90;99.90;;;;;;4976121;28;20488;-67
2021/12/30 17:32:51;;;;;;;0.80;0.77;;;14.90;99.90;;;;;;4976346;28;20485;-67
2021/12/30 17:35:18;;;;;;;0.67;0.67;;;14.80;99.90;;;;;;4976083;28;20462;-67
2021/12/30 17:37:45;;;;;;;0.80;0.80;;;14.80;99.90;;;;;;4975987;28;20456;-67
2021/12/30 17:40:18;;;;;;;0.70;0.67;;;14.80;99.90;;;;;;4976066;28;20480;-68
2021/12/30 17:42:47;;;;;;;1.00;0.90;;;14.90;99.90;;;;;;4976854;28;20505;-66
2021/12/30 17:45:16;;;;;;;1.23;0.90;;;14.90;99.90;;;;;;4975841;28;20949;-66
2021/12/30 17:47:46;;;;;;;0.97;0.70;;;15.00;99.90;;;;;;4976253;28;20974;-67
2021/12/30 17:50:14;;;;;;;1.10;1.00;;;15.00;99.90;;;;;;4976605;28;20498;-68
2021/12/30 17:52:41;;;;;;;0.97;0.97;;;15.00;99.90;;;;;;4976116;28;20477;-68
2021/12/30 17:55:08;;;;;;;0.93;0.83;;;15.10;99.90;;;;;;4976621;28;20474;-68
2021/12/30 17:57:36;;;;;;;0.67;0.67;;;15.10;99.90;;;;;;4976514;28;20460;-68
2021/12/30 18:00:05;;;;;;;0.67;0.67;;;15.20;99.90;;;;;;4975728;28;20458;-67